sensor_id;sensor_type;location;lat;lon;timestamp;pressure;altitude;pressure_sealevel;temperature;humidity
6090;BME280;3073;42.660;23.316;2023-07-09T00:01:49;94941.91;;;25.99;48.30
6090;BME280;3073;42.660;23.316;2023-07-09T00:04:17;94943.56;;;26.24;48.05
6090;BME280;3073;42.660;23.316;2023-07-09T00:06:44;94939.41;;;26.02;48.23
6090;BME280;3073;42.660;23.316;2023-07-09T00:09:13;94929.41;;;26.37;47.54
6090;BME280;3073;42.660;23.316;2023-07-09T00:11:55;94932.88;;;26.29;47.55
6090;BME280;3073;42.660;23.316;2023-07-09T00:14:22;94936.94;;;26.39;47.27
6090;BME280;3073;42.660;23.316;2023-07-09T00:16:49;94928.88;;;25.78;48.03
6090;BME280;3073;42.660;23.316;2023-07-09T00:19:18;94933.13;;;26.36;47.17
6090;BME280;3073;42.660;23.316;2023-07-09T00:21:47;94929.88;;;25.86;48.01
6090;BME280;3073;42.660;23.316;2023-07-09T00:24:18;94929.44;;;25.42;48.72
6090;BME280;3073;42.660;23.316;2023-07-09T00:26:46;94931.97;;;25.92;48.08
6090;BME280;3073;42.660;23.316;2023-07-09T00:29:15;94933.19;;;25.95;47.87
6090;BME280;3073;42.660;23.316;2023-07-09T00:31:43;94928.47;;;25.47;48.86
6090;BME280;3073;42.660;23.316;2023-07-09T00:34:13;94930.78;;;25.69;48.25
6090;BME280;3073;42.660;23.316;2023-07-09T00:36:40;94921.44;;;24.97;49.44
6090;BME280;3073;42.660;23.316;2023-07-09T00:39:14;94924.09;;;25.80;47.95
6090;BME280;3073;42.660;23.316;2023-07-09T00:41:43;94924.25;;;25.13;48.67
6090;BME280;3073;42.660;23.316;2023-07-09T00:44:26;94922.66;;;25.21;49.05
6090;BME280;3073;42.660;23.316;2023-07-09T00:47:12;94916.09;;;25.35;48.69
6090;BME280;3073;42.660;23.316;2023-07-09T00:49:43;94918.84;;;25.18;48.94
6090;BME280;3073;42.660;23.316;2023-07-09T00:52:22;94917.41;;;24.62;49.77
6090;BME280;3073;42.660;23.316;2023-07-09T00:54:51;94915.47;;;24.50;50.20
6090;BME280;3073;42.660;23.316;2023-07-09T00:57:21;94912.38;;;24.95;49.42
6090;BME280;3073;42.660;23.316;2023-07-09T00:59:55;94903.38;;;25.34;48.70
6090;BME280;3073;42.660;23.316;2023-07-09T01:02:23;94911.16;;;25.22;48.66
6090;BME280;3073;42.660;23.316;2023-07-09T01:04:51;94909.97;;;25.10;48.72
6090;BME280;3073;42.660;23.316;2023-07-09T01:07:21;94908.44;;;25.09;48.86
6090;BME280;3073;42.660;23.316;2023-07-09T01:09:48;94913.78;;;25.13;48.81
6090;BME280;3073;42.660;23.316;2023-07-09T01:12:18;94908.34;;;25.27;48.43
6090;BME280;3073;42.660;23.316;2023-07-09T01:14:47;94916.50;;;25.87;47.58
6090;BME280;3073;42.660;23.316;2023-07-09T01:17:18;94906.28;;;25.32;48.38
6090;BME280;3073;42.660;23.316;2023-07-09T01:19:50;94907.03;;;24.91;49.08
6090;BME280;3073;42.660;23.316;2023-07-09T01:22:19;94909.53;;;25.29;48.54
6090;BME280;3073;42.660;23.316;2023-07-09T01:24:50;94906.94;;;25.29;48.05
6090;BME280;3073;42.660;23.316;2023-07-09T01:27:19;94890.69;;;25.44;47.99
6090;BME280;3073;42.660;23.316;2023-07-09T01:29:47;94897.13;;;25.47;48.34
6090;BME280;3073;42.660;23.316;2023-07-09T01:32:15;94902.34;;;25.47;48.24
6090;BME280;3073;42.660;23.316;2023-07-09T01:34:44;94896.44;;;24.79;49.21
6090;BME280;3073;42.660;23.316;2023-07-09T01:37:14;94892.16;;;25.33;48.62
6090;BME280;3073;42.660;23.316;2023-07-09T01:39:42;94891.91;;;25.47;48.27
6090;BME280;3073;42.660;23.316;2023-07-09T01:42:09;94888.09;;;25.65;47.86
6090;BME280;3073;42.660;23.316;2023-07-09T01:44:37;94888.75;;;26.07;46.96
6090;BME280;3073;42.660;23.316;2023-07-09T01:47:04;94902.06;;;26.02;46.87
6090;BME280;3073;42.660;23.316;2023-07-09T01:49:32;94910.34;;;25.71;47.08
6090;BME280;3073;42.660;23.316;2023-07-09T01:52:00;94902.88;;;25.82;47.30
6090;BME280;3073;42.660;23.316;2023-07-09T01:54:28;94917.53;;;25.53;47.76
6090;BME280;3073;42.660;23.316;2023-07-09T01:57:13;94909.59;;;25.83;47.42
6090;BME280;3073;42.660;23.316;2023-07-09T01:59:41;94907.63;;;25.18;48.31
6090;BME280;3073;42.660;23.316;2023-07-09T02:02:07;94910.78;;;25.32;48.72
6090;BME280;3073;42.660;23.316;2023-07-09T02:04:34;94916.16;;;25.27;48.01
6090;BME280;3073;42.660;23.316;2023-07-09T02:07:01;94911.63;;;25.65;47.67
6090;BME280;3073;42.660;23.316;2023-07-09T02:09:28;94918.03;;;25.47;48.38
6090;BME280;3073;42.660;23.316;2023-07-09T02:11:55;94913.38;;;25.73;47.63
6090;BME280;3073;42.660;23.316;2023-07-09T02:14:23;94911.88;;;25.01;48.87
6090;BME280;3073;42.660;23.316;2023-07-09T02:16:50;94911.53;;;25.12;48.58
6090;BME280;3073;42.660;23.316;2023-07-09T02:19:17;94921.25;;;25.52;48.02
6090;BME280;3073;42.660;23.316;2023-07-09T02:21:44;94911.09;;;25.72;47.71
6090;BME280;3073;42.660;23.316;2023-07-09T02:24:11;94913.78;;;25.96;47.13
6090;BME280;3073;42.660;23.316;2023-07-09T02:26:37;94912.56;;;25.81;47.38
6090;BME280;3073;42.660;23.316;2023-07-09T02:29:04;94918.19;;;25.71;47.49
6090;BME280;3073;42.660;23.316;2023-07-09T02:31:33;94920.06;;;25.21;48.42
6090;BME280;3073;42.660;23.316;2023-07-09T02:34:00;94916.59;;;25.29;48.56
6090;BME280;3073;42.660;23.316;2023-07-09T02:36:28;94922.56;;;24.88;49.26
6090;BME280;3073;42.660;23.316;2023-07-09T02:38:55;94919.34;;;25.12;48.99
6090;BME280;3073;42.660;23.316;2023-07-09T02:41:21;94926.28;;;25.07;48.93
6090;BME280;3073;42.660;23.316;2023-07-09T02:43:48;94933.22;;;25.74;48.36
6090;BME280;3073;42.660;23.316;2023-07-09T02:46:15;94927.50;;;25.60;47.98
6090;BME280;3073;42.660;23.316;2023-07-09T02:48:43;94929.72;;;25.70;48.61
6090;BME280;3073;42.660;23.316;2023-07-09T02:51:10;94937.94;;;25.60;48.17
6090;BME280;3073;42.660;23.316;2023-07-09T02:53:37;94936.16;;;25.23;48.77
6090;BME280;3073;42.660;23.316;2023-07-09T02:56:04;94936.41;;;25.59;47.95
6090;BME280;3073;42.660;23.316;2023-07-09T02:58:30;94945.53;;;25.24;48.57
6090;BME280;3073;42.660;23.316;2023-07-09T03:00:57;94945.19;;;25.34;48.71
6090;BME280;3073;42.660;23.316;2023-07-09T03:03:24;94948.72;;;25.29;48.66
6090;BME280;3073;42.660;23.316;2023-07-09T03:05:56;94949.69;;;25.54;48.48
6090;BME280;3073;42.660;23.316;2023-07-09T03:08:22;94954.09;;;25.33;48.60
6090;BME280;3073;42.660;23.316;2023-07-09T03:10:49;94957.38;;;25.92;47.50
6090;BME280;3073;42.660;23.316;2023-07-09T03:13:16;94955.69;;;26.08;47.47
6090;BME280;3073;42.660;23.316;2023-07-09T03:15:43;94955.38;;;25.89;47.54
6090;BME280;3073;42.660;23.316;2023-07-09T03:18:10;94953.38;;;25.74;47.74
6090;BME280;3073;42.660;23.316;2023-07-09T03:20:36;94956.63;;;25.50;48.22
6090;BME280;3073;42.660;23.316;2023-07-09T03:23:05;94962.72;;;25.04;48.63
6090;BME280;3073;42.660;23.316;2023-07-09T03:25:32;94954.97;;;25.66;48.07
6090;BME280;3073;42.660;23.316;2023-07-09T03:27:58;94964.72;;;25.78;47.83
6090;BME280;3073;42.660;23.316;2023-07-09T03:30:26;94957.81;;;25.94;47.70
6090;BME280;3073;42.660;23.316;2023-07-09T03:32:53;94962.81;;;25.66;48.18
6090;BME280;3073;42.660;23.316;2023-07-09T03:35:20;94965.28;;;25.42;48.88
6090;BME280;3073;42.660;23.316;2023-07-09T03:37:47;94962.88;;;25.49;48.68
6090;BME280;3073;42.660;23.316;2023-07-09T03:40:20;94961.72;;;25.88;47.75
6090;BME280;3073;42.660;23.316;2023-07-09T03:42:47;94967.06;;;25.50;48.48
6090;BME280;3073;42.660;23.316;2023-07-09T03:45:14;94958.41;;;25.29;49.07
6090;BME280;3073;42.660;23.316;2023-07-09T03:47:41;94971.09;;;25.39;48.85
6090;BME280;3073;42.660;23.316;2023-07-09T03:50:09;94967.47;;;25.60;49.14
6090;BME280;3073;42.660;23.316;2023-07-09T03:52:36;94962.94;;;25.70;48.51
6090;BME280;3073;42.660;23.316;2023-07-09T03:55:04;94967.38;;;25.19;49.42
6090;BME280;3073;42.660;23.316;2023-07-09T03:57:33;94970.13;;;25.23;49.32
6090;BME280;3073;42.660;23.316;2023-07-09T04:00:00;94971.94;;;25.01;50.04
6090;BME280;3073;42.660;23.316;2023-07-09T04:02:26;94975.72;;;25.13;49.73
6090;BME280;3073;42.660;23.316;2023-07-09T04:04:53;94970.72;;;24.99;50.13
6090;BME280;3073;42.660;23.316;2023-07-09T04:07:20;94970.03;;;24.73;50.04
6090;BME280;3073;42.660;23.316;2023-07-09T04:09:47;94974.97;;;25.62;48.88
6090;BME280;3073;42.660;23.316;2023-07-09T04:12:14;94971.66;;;25.53;49.29
6090;BME280;3073;42.660;23.316;2023-07-09T04:14:43;94983.41;;;25.68;48.85
6090;BME280;3073;42.660;23.316;2023-07-09T04:17:09;94981.31;;;25.32;49.52
6090;BME280;3073;42.660;23.316;2023-07-09T04:19:36;94978.63;;;24.82;49.93
6090;BME280;3073;42.660;23.316;2023-07-09T04:22:04;94988.94;;;25.87;48.56
6090;BME280;3073;42.660;23.316;2023-07-09T04:24:31;94988.75;;;25.50;48.88
6090;BME280;3073;42.660;23.316;2023-07-09T04:26:58;94994.41;;;24.94;50.34
6090;BME280;3073;42.660;23.316;2023-07-09T04:29:28;94995.25;;;26.06;48.38
6090;BME280;3073;42.660;23.316;2023-07-09T04:31:56;94998.06;;;26.22;48.32
6090;BME280;3073;42.660;23.316;2023-07-09T04:34:23;94990.84;;;26.19;47.93
6090;BME280;3073;42.660;23.316;2023-07-09T04:36:50;94997.63;;;26.20;48.32
6090;BME280;3073;42.660;23.316;2023-07-09T04:39:17;95005.38;;;26.29;48.34
6090;BME280;3073;42.660;23.316;2023-07-09T04:41:44;95003.63;;;26.66;47.67
6090;BME280;3073;42.660;23.316;2023-07-09T04:44:10;95010.44;;;26.46;47.78
6090;BME280;3073;42.660;23.316;2023-07-09T04:46:37;95007.69;;;26.09;48.74
6090;BME280;3073;42.660;23.316;2023-07-09T04:49:06;95003.22;;;25.69;49.08
6090;BME280;3073;42.660;23.316;2023-07-09T04:51:33;95000.69;;;26.79;48.06
6090;BME280;3073;42.660;23.316;2023-07-09T04:54:00;95001.44;;;26.23;48.40
6090;BME280;3073;42.660;23.316;2023-07-09T04:56:28;94997.69;;;25.70;48.78
6090;BME280;3073;42.660;23.316;2023-07-09T04:58:56;95002.16;;;26.11;48.76
6090;BME280;3073;42.660;23.316;2023-07-09T05:01:23;95007.75;;;26.54;48.49
6090;BME280;3073;42.660;23.316;2023-07-09T05:03:50;94995.44;;;26.01;49.46
6090;BME280;3073;42.660;23.316;2023-07-09T05:06:18;94998.16;;;26.91;47.73
6090;BME280;3073;42.660;23.316;2023-07-09T05:08:45;95018.34;;;26.91;47.67
6090;BME280;3073;42.660;23.316;2023-07-09T05:11:14;95007.88;;;26.58;48.31
6090;BME280;3073;42.660;23.316;2023-07-09T05:13:41;95008.25;;;26.81;48.29
6090;BME280;3073;42.660;23.316;2023-07-09T05:16:08;95005.13;;;26.87;47.34
6090;BME280;3073;42.660;23.316;2023-07-09T05:18:34;95012.59;;;26.65;47.96
6090;BME280;3073;42.660;23.316;2023-07-09T05:21:01;95012.03;;;26.26;48.68
6090;BME280;3073;42.660;23.316;2023-07-09T05:23:29;95020.59;;;25.94;49.52
6090;BME280;3073;42.660;23.316;2023-07-09T05:25:56;95016.13;;;25.94;49.20
6090;BME280;3073;42.660;23.316;2023-07-09T05:28:23;95017.66;;;26.82;47.61
6090;BME280;3073;42.660;23.316;2023-07-09T05:30:50;95021.72;;;26.91;47.95
6090;BME280;3073;42.660;23.316;2023-07-09T05:33:18;95019.19;;;26.50;48.30
6090;BME280;3073;42.660;23.316;2023-07-09T05:35:45;95012.78;;;27.17;47.54
6090;BME280;3073;42.660;23.316;2023-07-09T05:38:12;95015.06;;;27.30;47.44
6090;BME280;3073;42.660;23.316;2023-07-09T05:40:41;95013.47;;;26.69;47.79
6090;BME280;3073;42.660;23.316;2023-07-09T05:43:09;95010.59;;;26.94;47.76
6090;BME280;3073;42.660;23.316;2023-07-09T05:45:38;95006.22;;;27.35;47.34
6090;BME280;3073;42.660;23.316;2023-07-09T05:48:05;95019.09;;;27.40;47.62
6090;BME280;3073;42.660;23.316;2023-07-09T05:50:33;95023.34;;;25.47;50.44
6090;BME280;3073;42.660;23.316;2023-07-09T05:53:00;95016.84;;;26.36;48.86
6090;BME280;3073;42.660;23.316;2023-07-09T05:55:27;95010.31;;;26.75;48.70
6090;BME280;3073;42.660;23.316;2023-07-09T05:57:55;95010.84;;;26.69;48.43
6090;BME280;3073;42.660;23.316;2023-07-09T06:00:22;95012.78;;;26.27;49.20
6090;BME280;3073;42.660;23.316;2023-07-09T06:02:49;95010.91;;;26.93;48.61
6090;BME280;3073;42.660;23.316;2023-07-09T06:05:16;95016.19;;;26.72;48.72
6090;BME280;3073;42.660;23.316;2023-07-09T06:07:43;95019.56;;;26.73;48.77
6090;BME280;3073;42.660;23.316;2023-07-09T06:10:10;95012.13;;;26.62;49.18
6090;BME280;3073;42.660;23.316;2023-07-09T06:12:36;95014.94;;;27.63;47.70
6090;BME280;3073;42.660;23.316;2023-07-09T06:15:06;95004.69;;;27.22;48.38
6090;BME280;3073;42.660;23.316;2023-07-09T06:17:34;95005.03;;;27.96;47.54
6090;BME280;3073;42.660;23.316;2023-07-09T06:20:00;95001.84;;;28.58;47.13
6090;BME280;3073;42.660;23.316;2023-07-09T06:22:27;95002.59;;;29.88;44.37
6090;BME280;3073;42.660;23.316;2023-07-09T06:24:54;95005.53;;;30.63;42.79
6090;BME280;3073;42.660;23.316;2023-07-09T06:27:21;95011.25;;;30.27;43.17
6090;BME280;3073;42.660;23.316;2023-07-09T06:29:48;95001.91;;;30.94;41.73
6090;BME280;3073;42.660;23.316;2023-07-09T06:32:16;94999.81;;;31.26;41.70
6090;BME280;3073;42.660;23.316;2023-07-09T06:34:42;95002.28;;;31.41;40.79
6090;BME280;3073;42.660;23.316;2023-07-09T06:37:09;95002.56;;;30.64;41.54
6090;BME280;3073;42.660;23.316;2023-07-09T06:39:36;95008.34;;;30.12;42.11
6090;BME280;3073;42.660;23.316;2023-07-09T06:42:02;95003.78;;;30.09;42.09
6090;BME280;3073;42.660;23.316;2023-07-09T06:44:29;94999.06;;;31.81;40.48
6090;BME280;3073;42.660;23.316;2023-07-09T06:46:55;94999.66;;;31.97;41.21
6090;BME280;3073;42.660;23.316;2023-07-09T06:49:23;95001.97;;;32.69;39.72
6090;BME280;3073;42.660;23.316;2023-07-09T06:51:50;94995.72;;;31.84;40.90
6090;BME280;3073;42.660;23.316;2023-07-09T06:54:17;94997.69;;;32.57;39.91
6090;BME280;3073;42.660;23.316;2023-07-09T06:56:43;94996.78;;;30.78;41.48
6090;BME280;3073;42.660;23.316;2023-07-09T06:59:10;94997.44;;;32.03;40.81
6090;BME280;3073;42.660;23.316;2023-07-09T07:01:36;94998.50;;;31.95;41.06
6090;BME280;3073;42.660;23.316;2023-07-09T07:04:03;94994.88;;;32.06;40.69
6090;BME280;3073;42.660;23.316;2023-07-09T07:06:31;95000.38;;;33.05;39.52
6090;BME280;3073;42.660;23.316;2023-07-09T07:08:58;94997.59;;;31.84;40.08
6090;BME280;3073;42.660;23.316;2023-07-09T07:11:24;94999.25;;;33.06;39.32
6090;BME280;3073;42.660;23.316;2023-07-09T07:13:55;94993.09;;;32.51;39.33
6090;BME280;3073;42.660;23.316;2023-07-09T07:16:22;94993.84;;;32.51;39.45
6090;BME280;3073;42.660;23.316;2023-07-09T07:18:49;95001.19;;;32.32;39.50
6090;BME280;3073;42.660;23.316;2023-07-09T07:21:16;94995.97;;;30.97;40.21
6090;BME280;3073;42.660;23.316;2023-07-09T07:23:44;94993.06;;;33.35;38.40
6090;BME280;3073;42.660;23.316;2023-07-09T07:26:10;94993.94;;;33.02;38.34
6090;BME280;3073;42.660;23.316;2023-07-09T07:28:37;94996.00;;;33.85;37.91
6090;BME280;3073;42.660;23.316;2023-07-09T07:31:05;94987.00;;;33.35;38.26
6090;BME280;3073;42.660;23.316;2023-07-09T07:33:32;94989.53;;;33.75;37.05
6090;BME280;3073;42.660;23.316;2023-07-09T07:35:59;94990.81;;;32.53;37.51
6090;BME280;3073;42.660;23.316;2023-07-09T07:38:26;94987.88;;;32.98;37.81
6090;BME280;3073;42.660;23.316;2023-07-09T07:40:54;94978.75;;;33.47;37.42
6090;BME280;3073;42.660;23.316;2023-07-09T07:43:20;94982.06;;;33.98;37.66
6090;BME280;3073;42.660;23.316;2023-07-09T07:45:47;94992.13;;;35.32;36.02
6090;BME280;3073;42.660;23.316;2023-07-09T07:48:13;94987.56;;;34.90;35.23
6090;BME280;3073;42.660;23.316;2023-07-09T07:50:40;94989.34;;;32.92;37.02
6090;BME280;3073;42.660;23.316;2023-07-09T07:53:07;94988.38;;;33.76;37.03
6090;BME280;3073;42.660;23.316;2023-07-09T07:55:34;94992.84;;;35.47;35.71
6090;BME280;3073;42.660;23.316;2023-07-09T07:58:03;94984.34;;;36.05;34.09
6090;BME280;3073;42.660;23.316;2023-07-09T08:00:29;94987.59;;;35.26;34.88
6090;BME280;3073;42.660;23.316;2023-07-09T08:02:56;94988.28;;;34.55;36.06
6090;BME280;3073;42.660;23.316;2023-07-09T08:05:23;94980.72;;;35.60;34.28
6090;BME280;3073;42.660;23.316;2023-07-09T08:07:49;94987.22;;;34.81;35.25
6090;BME280;3073;42.660;23.316;2023-07-09T08:10:16;94986.06;;;35.03;35.17
6090;BME280;3073;42.660;23.316;2023-07-09T08:12:43;94980.75;;;34.93;35.50
6090;BME280;3073;42.660;23.316;2023-07-09T08:15:13;94981.47;;;35.60;34.54
6090;BME280;3073;42.660;23.316;2023-07-09T08:17:39;94979.91;;;35.74;34.53
6090;BME280;3073;42.660;23.316;2023-07-09T08:20:07;94976.22;;;35.00;35.82
6090;BME280;3073;42.660;23.316;2023-07-09T08:22:33;94967.31;;;35.95;35.18
6090;BME280;3073;42.660;23.316;2023-07-09T08:25:00;94967.84;;;35.34;34.94
6090;BME280;3073;42.660;23.316;2023-07-09T08:27:26;94969.03;;;35.26;35.56
6090;BME280;3073;42.660;23.316;2023-07-09T08:29:53;94957.19;;;35.62;34.04
6090;BME280;3073;42.660;23.316;2023-07-09T08:32:21;94955.25;;;34.18;34.25
6090;BME280;3073;42.660;23.316;2023-07-09T08:34:47;94963.75;;;33.65;36.88
6090;BME280;3073;42.660;23.316;2023-07-09T08:37:14;94971.66;;;35.29;35.60
6090;BME280;3073;42.660;23.316;2023-07-09T08:39:41;94973.16;;;34.56;35.21
6090;BME280;3073;42.660;23.316;2023-07-09T08:42:09;94970.03;;;36.61;33.99
6090;BME280;3073;42.660;23.316;2023-07-09T08:44:43;94976.91;;;34.51;35.66
6090;BME280;3073;42.660;23.316;2023-07-09T08:47:13;94965.69;;;36.81;33.89
6090;BME280;3073;42.660;23.316;2023-07-09T08:49:44;94969.78;;;36.34;34.39
6090;BME280;3073;42.660;23.316;2023-07-09T08:52:14;94962.94;;;34.90;35.17
6090;BME280;3073;42.660;23.316;2023-07-09T08:54:44;94970.84;;;35.50;34.46
6090;BME280;3073;42.660;23.316;2023-07-09T08:57:18;94963.69;;;36.37;34.07
6090;BME280;3073;42.660;23.316;2023-07-09T08:59:46;94973.75;;;36.01;33.58
6090;BME280;3073;42.660;23.316;2023-07-09T09:02:15;94968.38;;;36.19;33.63
6090;BME280;3073;42.660;23.316;2023-07-09T09:04:45;94975.34;;;35.78;34.12
6090;BME280;3073;42.660;23.316;2023-07-09T09:07:16;94974.50;;;37.60;32.73
6090;BME280;3073;42.660;23.316;2023-07-09T09:09:51;94976.97;;;35.26;33.66
6090;BME280;3073;42.660;23.316;2023-07-09T09:12:23;94973.19;;;34.95;34.20
6090;BME280;3073;42.660;23.316;2023-07-09T09:14:52;94975.75;;;34.35;35.24
6090;BME280;3073;42.660;23.316;2023-07-09T09:17:23;94969.69;;;34.38;35.84
6090;BME280;3073;42.660;23.316;2023-07-09T09:19:53;94970.13;;;35.39;35.49
6090;BME280;3073;42.660;23.316;2023-07-09T09:22:22;94961.00;;;37.03;33.26
6090;BME280;3073;42.660;23.316;2023-07-09T09:24:53;94960.34;;;37.33;32.87
6090;BME280;3073;42.660;23.316;2023-07-09T09:27:21;94966.03;;;38.06;32.55
6090;BME280;3073;42.660;23.316;2023-07-09T09:29:48;94969.63;;;38.23;32.16
6090;BME280;3073;42.660;23.316;2023-07-09T09:32:19;94963.78;;;36.23;33.85
6090;BME280;3073;42.660;23.316;2023-07-09T09:34:47;94963.19;;;37.86;32.30
6090;BME280;3073;42.660;23.316;2023-07-09T09:37:16;94964.13;;;36.29;33.78
6090;BME280;3073;42.660;23.316;2023-07-09T09:39:49;94956.19;;;37.28;33.28
6090;BME280;3073;42.660;23.316;2023-07-09T09:42:16;94964.75;;;38.44;32.30
6090;BME280;3073;42.660;23.316;2023-07-09T09:44:43;94953.63;;;37.18;31.97
6090;BME280;3073;42.660;23.316;2023-07-09T09:47:10;94948.03;;;35.70;33.52
6090;BME280;3073;42.660;23.316;2023-07-09T09:49:40;94948.72;;;35.95;33.59
6090;BME280;3073;42.660;23.316;2023-07-09T09:52:10;94951.31;;;36.75;33.36
6090;BME280;3073;42.660;23.316;2023-07-09T09:54:40;94948.16;;;36.87;32.48
6090;BME280;3073;42.660;23.316;2023-07-09T09:57:14;94946.66;;;36.86;32.60
6090;BME280;3073;42.660;23.316;2023-07-09T09:59:42;94952.13;;;38.18;31.26
6090;BME280;3073;42.660;23.316;2023-07-09T10:02:13;94940.44;;;37.03;32.28
6090;BME280;3073;42.660;23.316;2023-07-09T10:04:42;94946.88;;;37.47;31.73
6090;BME280;3073;42.660;23.316;2023-07-09T10:07:11;94942.44;;;36.34;32.81
6090;BME280;3073;42.660;23.316;2023-07-09T10:09:45;94946.78;;;36.72;32.74
6090;BME280;3073;42.660;23.316;2023-07-09T10:12:13;94940.03;;;36.57;32.46
6090;BME280;3073;42.660;23.316;2023-07-09T10:14:44;94941.38;;;36.83;32.08
6090;BME280;3073;42.660;23.316;2023-07-09T10:17:17;94936.78;;;37.28;32.03
6090;BME280;3073;42.660;23.316;2023-07-09T10:19:47;94931.97;;;37.83;31.02
6090;BME280;3073;42.660;23.316;2023-07-09T10:22:17;94936.88;;;38.72;30.32
6090;BME280;3073;42.660;23.316;2023-07-09T10:24:53;94934.66;;;37.53;31.85
6090;BME280;3073;42.660;23.316;2023-07-09T10:27:26;94940.78;;;38.41;30.51
6090;BME280;3073;42.660;23.316;2023-07-09T10:30:01;94932.81;;;38.64;29.58
6090;BME280;3073;42.660;23.316;2023-07-09T10:32:38;94923.13;;;40.19;28.99
6090;BME280;3073;42.660;23.316;2023-07-09T10:35:10;94938.97;;;39.31;29.35
6090;BME280;3073;42.660;23.316;2023-07-09T10:40:38;94939.22;;;37.11;30.57
6090;BME280;3073;42.660;23.316;2023-07-09T10:43:06;94922.22;;;36.98;31.08
6090;BME280;3073;42.660;23.316;2023-07-09T10:45:38;94917.84;;;36.23;31.90
6090;BME280;3073;42.660;23.316;2023-07-09T10:48:07;94914.41;;;37.89;31.49
6090;BME280;3073;42.660;23.316;2023-07-09T10:50:36;94925.31;;;36.90;31.74
6090;BME280;3073;42.660;23.316;2023-07-09T10:53:05;94921.66;;;37.89;29.81
6090;BME280;3073;42.660;23.316;2023-07-09T10:55:38;94929.97;;;37.23;30.24
6090;BME280;3073;42.660;23.316;2023-07-09T10:58:10;94922.31;;;37.29;30.12
6090;BME280;3073;42.660;23.316;2023-07-09T11:00:42;94931.81;;;38.28;29.40
6090;BME280;3073;42.660;23.316;2023-07-09T11:03:11;94921.53;;;37.69;31.40
6090;BME280;3073;42.660;23.316;2023-07-09T11:05:39;94930.75;;;38.22;30.28
6090;BME280;3073;42.660;23.316;2023-07-09T11:08:08;94919.75;;;38.96;28.65
6090;BME280;3073;42.660;23.316;2023-07-09T11:10:40;94926.47;;;39.24;28.84
6090;BME280;3073;42.660;23.316;2023-07-09T11:13:10;94910.94;;;37.62;29.14
6090;BME280;3073;42.660;23.316;2023-07-09T11:15:37;94920.06;;;38.75;27.99
6090;BME280;3073;42.660;23.316;2023-07-09T11:18:05;94931.38;;;38.33;28.54
6090;BME280;3073;42.660;23.316;2023-07-09T11:20:33;94922.66;;;36.42;30.13
6090;BME280;3073;42.660;23.316;2023-07-09T11:23:04;94908.06;;;36.02;30.69
6090;BME280;3073;42.660;23.316;2023-07-09T11:25:39;94920.88;;;37.21;30.52
6090;BME280;3073;42.660;23.316;2023-07-09T11:28:08;94919.09;;;38.89;28.07
6090;BME280;3073;42.660;23.316;2023-07-09T11:30:45;94916.47;;;37.03;30.04
6090;BME280;3073;42.660;23.316;2023-07-09T11:33:15;94911.09;;;36.66;29.37
6090;BME280;3073;42.660;23.316;2023-07-09T11:35:46;94911.13;;;38.62;29.00
6090;BME280;3073;42.660;23.316;2023-07-09T11:38:17;94909.19;;;37.82;30.24
6090;BME280;3073;42.660;23.316;2023-07-09T11:40:51;94913.34;;;38.13;28.40
6090;BME280;3073;42.660;23.316;2023-07-09T11:43:31;94916.84;;;37.43;28.92
6090;BME280;3073;42.660;23.316;2023-07-09T11:46:07;94912.28;;;37.77;28.49
6090;BME280;3073;42.660;23.316;2023-07-09T11:48:39;94901.09;;;37.59;28.80
6090;BME280;3073;42.660;23.316;2023-07-09T11:51:08;94901.44;;;37.91;29.02
6090;BME280;3073;42.660;23.316;2023-07-09T11:53:41;94899.91;;;37.90;29.00
6090;BME280;3073;42.660;23.316;2023-07-09T11:56:11;94897.16;;;37.67;29.89
6090;BME280;3073;42.660;23.316;2023-07-09T11:58:49;94904.47;;;39.79;27.99
6090;BME280;3073;42.660;23.316;2023-07-09T12:01:19;94908.31;;;38.19;29.20
6090;BME280;3073;42.660;23.316;2023-07-09T12:03:47;94901.28;;;38.05;29.66
6090;BME280;3073;42.660;23.316;2023-07-09T12:06:19;94899.31;;;38.86;29.00
6090;BME280;3073;42.660;23.316;2023-07-09T12:08:48;94899.56;;;37.88;29.99
6090;BME280;3073;42.660;23.316;2023-07-09T12:11:21;94901.13;;;38.93;29.29
6090;BME280;3073;42.660;23.316;2023-07-09T12:13:50;94890.00;;;39.77;28.11
6090;BME280;3073;42.660;23.316;2023-07-09T12:16:22;94888.38;;;36.51;30.81
6090;BME280;3073;42.660;23.316;2023-07-09T12:18:50;94894.94;;;38.23;29.70
6090;BME280;3073;42.660;23.316;2023-07-09T12:21:17;94904.22;;;38.11;30.25
6090;BME280;3073;42.660;23.316;2023-07-09T12:23:45;94895.34;;;38.48;29.43
6090;BME280;3073;42.660;23.316;2023-07-09T12:26:14;94888.19;;;38.14;29.97
6090;BME280;3073;42.660;23.316;2023-07-09T12:28:41;94886.47;;;36.99;30.06
6090;BME280;3073;42.660;23.316;2023-07-09T12:31:14;94880.75;;;34.79;33.27
6090;BME280;3073;42.660;23.316;2023-07-09T12:33:46;94881.94;;;36.48;32.11
6090;BME280;3073;42.660;23.316;2023-07-09T12:36:13;94887.53;;;34.52;33.58
6090;BME280;3073;42.660;23.316;2023-07-09T12:38:41;94878.28;;;35.52;32.42
6090;BME280;3073;42.660;23.316;2023-07-09T12:41:09;94873.91;;;34.71;33.11
6090;BME280;3073;42.660;23.316;2023-07-09T12:43:42;94879.97;;;34.89;33.04
6090;BME280;3073;42.660;23.316;2023-07-09T12:46:09;94876.16;;;34.37;33.51
6090;BME280;3073;42.660;23.316;2023-07-09T12:48:38;94879.06;;;35.52;32.86
6090;BME280;3073;42.660;23.316;2023-07-09T12:51:06;94861.09;;;35.81;31.72
6090;BME280;3073;42.660;23.316;2023-07-09T12:53:33;94866.72;;;35.94;32.14
6090;BME280;3073;42.660;23.316;2023-07-09T12:56:00;94872.84;;;36.90;31.76
6090;BME280;3073;42.660;23.316;2023-07-09T12:58:29;94868.06;;;36.23;31.74
6090;BME280;3073;42.660;23.316;2023-07-09T13:00:56;94870.84;;;36.60;31.15
6090;BME280;3073;42.660;23.316;2023-07-09T13:03:25;94866.38;;;37.32;30.79
6090;BME280;3073;42.660;23.316;2023-07-09T13:05:54;94870.06;;;37.42;29.88
6090;BME280;3073;42.660;23.316;2023-07-09T13:08:22;94862.53;;;34.74;33.07
6090;BME280;3073;42.660;23.316;2023-07-09T13:10:48;94869.31;;;36.04;32.28
6090;BME280;3073;42.660;23.316;2023-07-09T13:13:19;94865.91;;;35.03;33.87
6090;BME280;3073;42.660;23.316;2023-07-09T13:15:48;94855.34;;;34.53;34.12
6090;BME280;3073;42.660;23.316;2023-07-09T13:18:15;94854.09;;;35.36;33.89
6090;BME280;3073;42.660;23.316;2023-07-09T13:20:43;94863.75;;;36.40;33.20